createdAt,value
2022-10-11T00:00:08.324Z,7.87
2022-10-11T00:02:35.486Z,7.86
2022-10-11T00:05:02.258Z,7.78
2022-10-11T00:07:29.313Z,7.68
2022-10-11T00:09:55.843Z,7.67
2022-10-11T00:12:22.736Z,7.78
2022-10-11T00:14:49.789Z,7.81
2022-10-11T00:17:16.450Z,7.61
2022-10-11T00:19:43.112Z,7.61
2022-10-11T00:22:09.712Z,7.77
2022-10-11T00:24:36.319Z,7.80
2022-10-11T00:27:02.913Z,7.72
2022-10-11T00:29:29.489Z,7.61
2022-10-11T00:31:56.362Z,7.59
2022-10-11T00:34:23.301Z,7.57
2022-10-11T00:36:49.983Z,7.53
2022-10-11T00:39:16.590Z,7.57
2022-10-11T00:41:43.438Z,7.56
2022-10-11T00:44:18.961Z,7.55
2022-10-11T00:46:59.198Z,7.33
2022-10-11T00:49:40.888Z,7.31
2022-10-11T00:52:40.411Z,7.37
2022-10-11T00:55:12.890Z,7.47
2022-10-11T00:57:44.058Z,7.45
2022-10-11T01:00:13.643Z,7.50
2022-10-11T01:02:41.703Z,7.54
2022-10-11T01:05:29.260Z,7.45
2022-10-11T01:07:59.962Z,7.49
2022-10-11T01:10:27.646Z,7.48
2022-10-11T01:13:21.326Z,7.47
2022-10-11T01:15:55.368Z,7.46
2022-10-11T01:18:40.144Z,7.38
2022-10-11T01:21:15.249Z,7.49
2022-10-11T01:24:08.905Z,7.47
2022-10-11T01:26:56.296Z,7.40
2022-10-11T01:29:41.349Z,7.44
2022-10-11T01:32:33.524Z,7.35
2022-10-11T01:35:10.679Z,7.32
2022-10-11T01:37:41.915Z,7.25
2022-10-11T01:40:18.936Z,7.25
2022-10-11T01:42:46.811Z,7.12
2022-10-11T01:45:17.312Z,7.09
2022-10-11T01:47:45.828Z,7.25
2022-10-11T01:50:46.473Z,7.34
2022-10-11T01:53:44.467Z,7.33
2022-10-11T01:56:22.894Z,7.27
2022-10-11T01:59:17.627Z,7.24
2022-10-11T02:01:56.436Z,7.31
2022-10-11T02:04:48.850Z,7.31
2022-10-11T02:07:44.586Z,7.32
2022-10-11T02:10:20.180Z,7.24
2022-10-11T02:12:56.437Z,7.21
2022-10-11T02:15:27.334Z,7.22
2022-10-11T02:17:57.953Z,7.15
2022-10-11T02:20:28.470Z,7.09
2022-10-11T02:23:12.047Z,7.01
2022-10-11T02:25:40.499Z,7.01
2022-10-11T02:28:16.548Z,7.03
2022-10-11T02:30:46.288Z,6.99
2022-10-11T02:33:17.495Z,6.89
2022-10-11T02:35:49.436Z,6.75
2022-10-11T02:38:26.832Z,6.66
2022-10-11T02:41:20.861Z,6.60
2022-10-11T02:43:57.761Z,6.49
2022-10-11T02:46:26.407Z,6.46
2022-10-11T02:48:53.943Z,6.43
2022-10-11T02:51:20.558Z,6.49
2022-10-11T02:53:47.161Z,6.51
2022-10-11T02:56:13.655Z,6.55
2022-10-11T02:58:40.487Z,6.64
2022-10-11T03:01:07.123Z,6.65
2022-10-11T03:03:33.651Z,6.66
2022-10-11T03:06:03.241Z,6.57
2022-10-11T03:08:30.025Z,6.49
2022-10-11T03:10:56.896Z,6.53
2022-10-11T03:13:23.894Z,6.57
2022-10-11T03:16:02.320Z,6.47
2022-10-11T03:18:29.919Z,6.49
2022-10-11T03:20:56.683Z,6.44
2022-10-11T03:23:23.335Z,6.36
2022-10-11T03:25:51.910Z,6.37
2022-10-11T03:28:19.334Z,6.33
2022-10-11T03:30:50.485Z,6.49
2022-10-11T03:33:17.395Z,6.62
2022-10-11T03:35:45.612Z,6.56
2022-10-11T03:38:18.933Z,6.56
2022-10-11T03:40:45.770Z,6.47
2022-10-11T03:43:12.938Z,6.60
2022-10-11T03:45:42.524Z,6.55
2022-10-11T03:48:09.981Z,6.74
2022-10-11T03:50:37.561Z,6.66
2022-10-11T03:53:05.690Z,6.60
2022-10-11T03:55:33.151Z,6.64
2022-10-11T03:58:00.680Z,6.64
2022-10-11T04:00:27.309Z,6.62
2022-10-11T04:02:53.847Z,6.63
2022-10-11T04:05:20.433Z,6.56
2022-10-11T04:07:47.421Z,6.55
2022-10-11T04:10:14.292Z,6.56
2022-10-11T04:12:40.888Z,6.59
2022-10-11T04:15:07.999Z,6.52
2022-10-11T04:17:34.567Z,6.49
2022-10-11T04:20:01.593Z,6.49
2022-10-11T04:22:28.170Z,6.51
2022-10-11T04:24:54.690Z,6.52
2022-10-11T04:27:21.505Z,6.50
2022-10-11T04:29:48.295Z,6.43
2022-10-11T04:32:15.009Z,6.39
2022-10-11T04:34:41.610Z,6.35
2022-10-11T04:37:08.154Z,6.20
2022-10-11T04:39:37.106Z,6.13
2022-10-11T04:42:03.982Z,6.09
2022-10-11T04:44:31.339Z,6.04
2022-10-11T04:46:58.078Z,6.08
2022-10-11T04:49:24.986Z,6.00
2022-10-11T04:51:51.755Z,5.88
2022-10-11T04:54:18.660Z,5.86
2022-10-11T04:56:45.208Z,5.81
2022-10-11T04:59:12.145Z,5.77
2022-10-11T05:01:39.183Z,5.60
2022-10-11T05:04:05.980Z,5.62
2022-10-11T05:06:32.644Z,5.62
2022-10-11T05:09:00.585Z,5.61
2022-10-11T05:11:27.352Z,5.59
2022-10-11T05:13:54.048Z,5.53
2022-10-11T05:16:20.914Z,5.39
2022-10-11T05:18:47.686Z,5.47
2022-10-11T05:21:17.856Z,5.37
2022-10-11T05:23:45.156Z,5.47
2022-10-11T05:26:11.708Z,5.47
2022-10-11T05:28:38.814Z,5.44
2022-10-11T05:31:06.165Z,5.40
2022-10-11T05:33:33.593Z,5.43
2022-10-11T05:36:00.627Z,5.42
2022-10-11T05:38:27.752Z,5.44
2022-10-11T05:40:54.700Z,5.47
2022-10-11T05:43:21.328Z,5.56
2022-10-11T05:45:48.073Z,5.53
2022-10-11T05:48:14.767Z,5.39
2022-10-11T05:50:41.437Z,5.43
2022-10-11T05:53:08.077Z,5.50
2022-10-11T05:55:42.523Z,5.68
2022-10-11T05:58:13.230Z,5.64
2022-10-11T06:00:40.586Z,5.49
2022-10-11T06:03:08.873Z,5.41
2022-10-11T06:05:35.694Z,5.41
2022-10-11T06:08:03.921Z,5.35
2022-10-11T06:10:30.583Z,5.47
2022-10-11T06:12:57.625Z,5.49
2022-10-11T06:15:24.887Z,5.53
2022-10-11T06:17:51.471Z,5.67
2022-10-11T06:20:18.194Z,5.86
2022-10-11T06:22:44.848Z,5.79
2022-10-11T06:25:11.806Z,5.94
2022-10-11T06:27:38.583Z,5.95
2022-10-11T06:30:06.077Z,5.96
2022-10-11T06:32:32.860Z,6.18
2022-10-11T06:34:59.518Z,6.23
2022-10-11T06:37:26.075Z,6.43
2022-10-11T06:39:52.715Z,6.46
2022-10-11T06:42:19.319Z,6.47
2022-10-11T06:44:46.183Z,6.55
2022-10-11T06:47:13.104Z,6.58
2022-10-11T06:49:39.756Z,6.64
2022-10-11T06:52:06.407Z,6.80
2022-10-11T06:54:33.050Z,6.93
2022-10-11T06:56:59.843Z,7.04
2022-10-11T06:59:26.608Z,7.12
2022-10-11T07:01:53.380Z,7.15
2022-10-11T07:04:19.976Z,7.34
2022-10-11T07:06:46.517Z,7.38
2022-10-11T07:09:13.109Z,7.45
2022-10-11T07:11:39.742Z,7.53
2022-10-11T07:14:08.068Z,7.70
2022-10-11T07:16:37.430Z,7.88
2022-10-11T07:19:07.424Z,7.93
2022-10-11T07:21:35.639Z,7.87
2022-10-11T07:24:02.769Z,8.02
2022-10-11T07:26:35.307Z,8.16
2022-10-11T07:29:04.994Z,8.19
2022-10-11T07:31:31.902Z,8.29
2022-10-11T07:33:58.538Z,8.46
2022-10-11T07:36:25.472Z,8.56
2022-10-11T07:38:52.398Z,8.76
2022-10-11T07:41:19.841Z,8.87
2022-10-11T07:43:50.899Z,9.02
2022-10-11T07:46:18.448Z,9.16
2022-10-11T07:48:45.057Z,9.29
2022-10-11T07:51:15.337Z,9.47
2022-10-11T07:53:47.318Z,9.56
2022-10-11T07:56:20.942Z,9.65
2022-10-11T07:58:57.115Z,9.83
2022-10-11T08:01:24.540Z,10.03
2022-10-11T08:03:51.696Z,10.13
2022-10-11T08:06:21.584Z,10.24
2022-10-11T08:08:48.841Z,10.31
2022-10-11T08:11:24.241Z,10.41
2022-10-11T08:13:51.228Z,10.44
2022-10-11T08:16:18.405Z,10.58
2022-10-11T08:18:45.165Z,10.76
2022-10-11T08:21:14.850Z,10.87
2022-10-11T08:23:42.048Z,11.08
2022-10-11T08:26:09.785Z,11.14
2022-10-11T08:28:37.656Z,11.38
2022-10-11T08:31:04.944Z,11.64
2022-10-11T08:33:31.703Z,11.78
2022-10-11T08:35:58.903Z,11.89
2022-10-11T08:38:25.674Z,11.98
2022-10-11T08:40:55.618Z,12.02
2022-10-11T08:43:53.143Z,11.95
2022-10-11T08:46:26.215Z,12.14
2022-10-11T08:48:53.215Z,12.15
2022-10-11T08:52:04.722Z,12.28
2022-10-11T08:54:44.588Z,12.39
2022-10-11T08:57:19.394Z,12.50
2022-10-11T09:00:07.214Z,12.46
2022-10-11T09:03:08.661Z,12.53
2022-10-11T09:05:53.582Z,12.68
2022-10-11T09:08:31.474Z,12.69
2022-10-11T09:11:06.246Z,12.66
2022-10-11T09:13:52.537Z,12.81
2022-10-11T09:16:51.866Z,12.88
2022-10-11T09:19:39.904Z,13.03
2022-10-11T09:22:38.716Z,13.10
2022-10-11T09:25:18.204Z,13.20
2022-10-11T09:28:02.960Z,13.23
2022-10-11T09:30:30.980Z,13.39
2022-10-11T09:33:21.086Z,13.50
2022-10-11T09:35:50.504Z,13.56
2022-10-11T09:38:41.188Z,13.64
2022-10-11T09:41:26.960Z,13.67
2022-10-11T09:43:54.314Z,13.80
2022-10-11T09:46:22.995Z,13.99
2022-10-11T09:48:51.595Z,14.03
2022-10-11T09:51:24.016Z,14.02
2022-10-11T09:54:01.594Z,14.10
2022-10-11T09:56:30.869Z,14.28
2022-10-11T09:59:27.215Z,14.23
2022-10-11T10:02:12.807Z,14.45
2022-10-11T10:05:00.143Z,14.46
2022-10-11T10:07:28.165Z,14.58
2022-10-11T10:09:55.035Z,14.66
2022-10-11T10:12:27.502Z,14.66
2022-10-11T10:15:07.046Z,14.68
2022-10-11T10:17:35.974Z,14.64
2022-10-11T10:20:05.523Z,14.72
2022-10-11T10:22:37.916Z,14.81
2022-10-11T10:25:08.112Z,14.99
2022-10-11T10:27:35.298Z,15.08
2022-10-11T10:30:13.932Z,15.12
2022-10-11T10:32:56.987Z,15.13
2022-10-11T10:35:45.663Z,15.15
2022-10-11T10:38:15.402Z,15.20
2022-10-11T10:40:49.908Z,15.33
2022-10-11T10:43:19.433Z,15.36
2022-10-11T10:46:12.568Z,15.42
2022-10-11T10:49:34.530Z,15.43
2022-10-11T10:52:05.294Z,15.52
2022-10-11T10:54:44.080Z,15.59
2022-10-11T10:57:20.843Z,15.69
2022-10-11T11:00:13.599Z,15.68
2022-10-11T11:02:50.112Z,15.74
2022-10-11T11:05:48.353Z,15.86
2022-10-11T11:08:21.319Z,15.88
2022-10-11T11:11:15.613Z,16.13
2022-10-11T11:13:55.926Z,16.22
2022-10-11T11:16:37.444Z,16.28
2022-10-11T11:19:35.437Z,16.32
2022-10-11T11:22:05.709Z,16.29
2022-10-11T11:25:08.871Z,16.33
2022-10-11T11:27:50.652Z,16.51
2022-10-11T11:30:30.247Z,16.55
2022-10-11T11:33:18.309Z,16.35
2022-10-11T11:35:50.043Z,16.44
2022-10-11T11:38:29.216Z,16.59
2022-10-11T11:41:02.181Z,16.74
2022-10-11T11:43:53.771Z,16.74
2022-10-11T11:46:29.328Z,16.61
2022-10-11T11:49:01.845Z,16.43
2022-10-11T11:51:36.088Z,16.22
2022-10-11T11:54:22.790Z,16.47
2022-10-11T11:57:15.850Z,16.73
2022-10-11T11:59:51.388Z,16.79
2022-10-11T12:02:45.501Z,16.86
2022-10-11T12:05:15.150Z,16.89
2022-10-11T12:08:10.550Z,17.14
2022-10-11T12:10:53.695Z,17.13
2022-10-11T12:13:29.833Z,17.13
2022-10-11T12:16:11.442Z,17.32
2022-10-11T12:18:56.851Z,17.05
2022-10-11T12:21:37.899Z,17.06
2022-10-11T12:24:19.657Z,16.77
2022-10-11T12:26:58.500Z,16.57
2022-10-11T12:29:46.578Z,16.54
2022-10-11T12:32:28.643Z,16.60
2022-10-11T12:35:34.321Z,16.51
2022-10-11T12:38:14.624Z,16.48
2022-10-11T12:40:43.628Z,16.41
2022-10-11T12:43:24.133Z,16.38
2022-10-11T12:45:51.161Z,16.31
2022-10-11T12:48:22.652Z,16.27
2022-10-11T12:51:08.024Z,16.25
2022-10-11T12:54:02.272Z,16.29
2022-10-11T12:56:59.379Z,16.28
2022-10-11T12:59:26.149Z,16.25
2022-10-11T13:01:55.483Z,16.22
2022-10-11T13:04:26.619Z,16.23
2022-10-11T13:06:56.846Z,16.28
2022-10-11T13:09:37.123Z,16.25
2022-10-11T13:12:19.798Z,16.44
2022-10-11T13:14:56.708Z,16.59
2022-10-11T13:17:38.045Z,16.81
2022-10-11T13:20:19.339Z,17.06
2022-10-11T13:22:49.805Z,17.21
2022-10-11T13:25:23.831Z,17.22
2022-10-11T13:27:53.375Z,17.29
2022-10-11T13:30:29.674Z,17.40
2022-10-11T13:32:57.423Z,17.37
2022-10-11T13:35:32.987Z,17.40
2022-10-11T13:38:00.423Z,17.48
2022-10-11T13:40:28.108Z,17.44
2022-10-11T13:42:55.589Z,17.56
2022-10-11T13:45:24.678Z,17.63
2022-10-11T13:47:53.422Z,17.65
2022-10-11T13:50:31.980Z,17.69
2022-10-11T13:53:01.895Z,17.77
2022-10-11T13:55:47.324Z,17.85
2022-10-11T13:58:27.552Z,17.76
2022-10-11T14:01:00.535Z,17.76
2022-10-11T14:03:39.038Z,17.79
2022-10-11T14:06:06.993Z,17.81
2022-10-11T14:08:38.868Z,17.87
2022-10-11T14:11:10.340Z,17.86
2022-10-11T14:13:48.044Z,17.90
2022-10-11T14:16:40.319Z,18.03
2022-10-11T14:19:10.544Z,18.01
2022-10-11T14:21:43.403Z,17.97
2022-10-11T14:24:12.985Z,17.97
2022-10-11T14:26:44.171Z,17.89
2022-10-11T14:30:23.512Z,17.60
2022-10-11T14:32:37.307Z,17.70
2022-10-11T14:35:04.723Z,17.66
2022-10-11T14:37:31.400Z,17.53
2022-10-11T14:39:58.257Z,17.41
2022-10-11T14:42:24.955Z,17.42
2022-10-11T14:44:51.490Z,17.28
2022-10-11T14:47:18.523Z,17.21
2022-10-11T14:49:45.423Z,17.22
2022-10-11T14:52:13.615Z,17.15
2022-10-11T14:54:40.775Z,17.09
2022-10-11T14:57:11.703Z,17.02
2022-10-11T14:59:38.550Z,17.02
2022-10-11T15:02:07.413Z,16.94
2022-10-11T15:04:34.533Z,16.88
2022-10-11T15:07:01.509Z,16.80
2022-10-11T15:09:28.698Z,16.64
2022-10-11T15:11:55.875Z,16.50
2022-10-11T15:14:23.731Z,16.38
2022-10-11T15:16:50.463Z,16.23
2022-10-11T15:19:19.593Z,16.17
2022-10-11T15:21:46.951Z,16.21
2022-10-11T15:24:14.289Z,16.28
2022-10-11T15:26:41.710Z,16.28
2022-10-11T15:29:11.285Z,16.15
2022-10-11T15:31:38.428Z,16.05
2022-10-11T15:34:05.271Z,16.10
2022-10-11T15:36:32.239Z,16.10
2022-10-11T15:38:59.158Z,16.02
2022-10-11T15:41:25.953Z,16.07
2022-10-11T15:43:53.938Z,16.04
2022-10-11T15:46:22.337Z,15.89
2022-10-11T15:48:51.373Z,15.85
2022-10-11T15:51:18.444Z,15.95
2022-10-11T15:53:45.204Z,15.77
2022-10-11T15:56:18.708Z,15.63
2022-10-11T15:58:45.737Z,15.55
2022-10-11T16:01:18.767Z,15.50
2022-10-11T16:03:47.994Z,15.45
2022-10-11T16:06:14.924Z,15.36
2022-10-11T16:08:41.885Z,15.36
2022-10-11T16:11:12.241Z,15.25
2022-10-11T16:13:39.313Z,15.22
2022-10-11T16:16:08.856Z,15.16
2022-10-11T16:18:36.360Z,15.00
2022-10-11T16:21:08.437Z,14.88
2022-10-11T16:23:35.766Z,14.85
2022-10-11T16:26:05.961Z,14.68
2022-10-11T16:28:33.685Z,14.54
2022-10-11T16:31:05.269Z,14.38
2022-10-11T16:33:32.288Z,14.28
2022-10-11T16:36:18.858Z,14.30
2022-10-11T16:38:46.099Z,14.17
2022-10-11T16:41:12.583Z,14.02
2022-10-11T16:43:39.172Z,13.79
2022-10-11T16:46:06.028Z,13.75
2022-10-11T16:48:32.825Z,13.69
2022-10-11T16:51:07.928Z,13.60
2022-10-11T16:53:35.472Z,13.60
2022-10-11T16:56:09.947Z,13.40
2022-10-11T16:58:36.831Z,13.23
2022-10-11T17:01:08.811Z,13.09
2022-10-11T17:03:35.578Z,12.97
2022-10-11T17:06:02.486Z,12.98
2022-10-11T17:08:29.330Z,12.84
2022-10-11T17:10:57.898Z,12.66
2022-10-11T17:13:25.123Z,12.60
2022-10-11T17:15:51.965Z,12.52
2022-10-11T17:18:18.548Z,12.46
2022-10-11T17:20:45.530Z,12.43
2022-10-11T17:23:13.244Z,12.35
2022-10-11T17:25:45.246Z,12.33
2022-10-11T17:28:12.381Z,12.41
2022-10-11T17:30:41.772Z,12.39
2022-10-11T17:33:08.935Z,12.30
2022-10-11T17:35:35.606Z,12.24
2022-10-11T17:38:06.173Z,12.21
2022-10-11T17:40:33.518Z,12.07
2022-10-11T17:43:00.111Z,12.06
2022-10-11T17:45:26.753Z,11.92
2022-10-11T17:47:53.317Z,11.94
2022-10-11T17:50:19.911Z,11.84
2022-10-11T17:52:47.104Z,11.73
2022-10-11T17:55:13.673Z,11.59
2022-10-11T17:57:40.275Z,11.53
2022-10-11T18:00:07.717Z,11.47
2022-10-11T18:02:34.574Z,11.32
2022-10-11T18:05:01.340Z,11.30
2022-10-11T18:07:27.933Z,11.35
2022-10-11T18:09:54.670Z,11.35
2022-10-11T18:12:21.289Z,11.36
2022-10-11T18:14:47.945Z,11.29
2022-10-11T18:17:17.452Z,11.31
2022-10-11T18:19:44.534Z,11.14
2022-10-11T18:22:11.166Z,11.08
2022-10-11T18:24:39.163Z,11.12
2022-10-11T18:27:05.717Z,11.05
2022-10-11T18:29:32.460Z,10.86
2022-10-11T18:31:59.386Z,10.88
2022-10-11T18:34:26.014Z,10.91
2022-10-11T18:36:52.563Z,10.86
2022-10-11T18:39:21.318Z,10.73
2022-10-11T18:41:48.186Z,10.62
2022-10-11T18:44:15.806Z,10.59
2022-10-11T18:46:43.726Z,10.46
2022-10-11T18:49:12.252Z,10.42
2022-10-11T18:51:40.845Z,10.41
2022-10-11T18:54:10.141Z,10.41
2022-10-11T18:56:37.115Z,10.34
2022-10-11T18:59:04.952Z,10.29
2022-10-11T19:01:35.023Z,10.22
2022-10-11T19:04:02.715Z,10.16
2022-10-11T19:06:35.624Z,10.22
2022-10-11T19:09:10.764Z,10.13
2022-10-11T19:11:38.225Z,10.20
2022-10-11T19:14:08.327Z,10.05
2022-10-11T19:16:40.311Z,10.05
2022-10-11T19:19:08.056Z,10.10
2022-10-11T19:21:34.633Z,9.96
2022-10-11T19:24:01.952Z,9.83
2022-10-11T19:26:33.359Z,9.81
2022-10-11T19:29:09.250Z,9.83
2022-10-11T19:31:40.565Z,9.85
2022-10-11T19:34:07.601Z,9.89
2022-10-11T19:36:36.833Z,9.70
2022-10-11T19:39:05.144Z,9.65
2022-10-11T19:41:32.439Z,9.60
2022-10-11T19:43:59.226Z,9.60
2022-10-11T19:46:49.914Z,9.55
2022-10-11T19:49:17.807Z,9.43
2022-10-11T19:51:44.626Z,9.32
2022-10-11T19:54:13.538Z,9.33
2022-10-11T19:56:40.776Z,9.43
2022-10-11T19:59:07.462Z,9.43
2022-10-11T20:01:36.023Z,9.37
2022-10-11T20:04:05.753Z,9.28
2022-10-11T20:06:38.627Z,9.19
2022-10-11T20:09:28.481Z,9.24
2022-10-11T20:11:56.112Z,9.16
2022-10-11T20:14:22.757Z,9.05
2022-10-11T20:16:50.394Z,9.15
2022-10-11T20:19:17.478Z,9.06
2022-10-11T20:21:45.041Z,9.00
2022-10-11T20:24:11.627Z,9.06
2022-10-11T20:26:39.245Z,9.06
2022-10-11T20:29:06.606Z,9.02
2022-10-11T20:31:38.057Z,9.06
2022-10-11T20:34:07.211Z,8.99
2022-10-11T20:36:36.436Z,8.93
2022-10-11T20:39:04.828Z,8.89
2022-10-11T20:41:34.365Z,8.82
2022-10-11T20:44:02.693Z,8.77
2022-10-11T20:46:31.639Z,8.74
2022-10-11T20:49:02.140Z,8.79
2022-10-11T20:51:34.751Z,8.70
2022-10-11T20:54:02.309Z,8.74
2022-10-11T20:56:29.978Z,8.63
2022-10-11T20:58:57.948Z,8.58
2022-10-11T21:01:27.743Z,8.76
2022-10-11T21:03:57.052Z,8.65
2022-10-11T21:06:23.690Z,8.53
2022-10-11T21:08:50.318Z,8.40
2022-10-11T21:11:16.890Z,8.42
2022-10-11T21:13:43.839Z,8.51
2022-10-11T21:16:15.988Z,8.49
2022-10-11T21:18:42.802Z,8.48
2022-10-11T21:21:13.577Z,8.47
2022-10-11T21:23:41.170Z,8.42
2022-10-11T21:26:13.242Z,8.42
2022-10-11T21:28:40.723Z,8.40
2022-10-11T21:31:12.824Z,8.30
2022-10-11T21:33:41.735Z,8.26
2022-10-11T21:36:11.382Z,8.22
2022-10-11T21:38:37.942Z,8.22
2022-10-11T21:41:06.650Z,8.22
2022-10-11T21:43:35.109Z,8.20
2022-10-11T21:46:14.071Z,8.17
2022-10-11T21:48:40.942Z,8.17
2022-10-11T21:53:44.368Z,8.10
2022-10-11T21:56:10.977Z,7.99
2022-10-11T21:58:37.805Z,7.98
2022-10-11T22:01:04.445Z,7.95
2022-10-11T22:03:31.029Z,8.02
2022-10-11T22:05:57.834Z,8.08
2022-10-11T22:08:24.515Z,8.00
2022-10-11T22:10:57.802Z,7.90
2022-10-11T22:13:28.307Z,7.91
2022-10-11T22:15:58.407Z,7.95
2022-10-11T22:18:25.084Z,7.83
2022-10-11T22:20:51.733Z,7.75
2022-10-11T22:23:19.165Z,7.80
2022-10-11T22:25:46.178Z,7.77
2022-10-11T22:28:12.822Z,7.74
2022-10-11T22:30:40.784Z,7.68
2022-10-11T22:33:07.490Z,7.61
2022-10-11T22:35:37.957Z,7.62
2022-10-11T22:38:06.212Z,7.65
2022-10-11T22:40:33.406Z,7.56
2022-10-11T22:43:00.215Z,7.47
2022-10-11T22:45:26.910Z,7.41
2022-10-11T22:47:53.492Z,7.40
2022-10-11T22:50:22.044Z,7.42
2022-10-11T22:52:48.938Z,7.54
2022-10-11T22:55:19.890Z,7.56
2022-10-11T22:57:46.910Z,7.48
2022-10-11T23:00:14.956Z,7.51
2022-10-11T23:02:47.206Z,7.46
2022-10-11T23:05:14.106Z,7.39
2022-10-11T23:07:40.818Z,7.35
2022-10-11T23:10:07.887Z,7.29
2022-10-11T23:12:37.604Z,7.27
2022-10-11T23:15:04.811Z,7.33
2022-10-11T23:17:32.109Z,7.23
2022-10-11T23:19:58.730Z,7.15
2022-10-11T23:22:28.616Z,7.08
2022-10-11T23:24:55.339Z,7.08
2022-10-11T23:27:21.877Z,7.00
2022-10-11T23:29:48.473Z,7.03
2022-10-11T23:32:15.333Z,6.99
2022-10-11T23:34:42.247Z,7.06
2022-10-11T23:37:08.842Z,7.03
2022-10-11T23:39:35.470Z,6.97
2022-10-11T23:42:01.959Z,6.99
2022-10-11T23:44:28.815Z,7.04
2022-10-11T23:46:55.815Z,7.02
2022-10-11T23:49:22.409Z,7.10
2022-10-11T23:51:49.009Z,7.04
2022-10-11T23:54:15.703Z,7.09
2022-10-11T23:56:42.705Z,7.20
2022-10-11T23:59:09.840Z,7.16
